Latest Weather Observations for Bega

IDN60801

Issued at 7:05 am EST Wednesday 3 September 2014 (issued every 30 minutes, with the page automatically refreshed every 10 minutes)

About weather observations | Map of weather stations | Latest weather observations for NSW | Other Formats
Station Details ID: 069139 Name: BEGA AWS Lat: -36.67 Lon: 149.82 Height: 41.0 m
Data from the previous 72 hours. | See also: Recent months at Bega
Date/Time
EST
Temp
°C
App
Temp
°C
Dew
Point
Rel
Hum
%
Delta-T
°C
Wind Press
QNH
hPa
Press
MSL
hPa
Rain
since 9 am
mm
Dir
 
Spd
km/h
Gust
km/h
Spd
kts
Gust
kts
03/07:00am 8.8 2.8 3.6 70 2.2 SW 24 41 13 22 1017.4 - 5.0
03/06:30am 8.8 2.4 3.2 68 2.4 WSW 26 39 14 21 1017.3 - 5.0
03/06:00am 8.6 3.4 3.6 71 2.2 WSW 20 30 11 16 1017.0 1017.1 5.0
03/05:30am 8.4 1.7 3.5 71 2.1 WSW 28 41 15 22 1016.7 - 5.0
03/05:00am 8.4 2.0 3.3 70 2.2 WSW 26 39 14 21 1016.5 - 5.0
03/04:34am 8.0 1.2 3.3 72 2.0 WSW 28 46 15 25 1015.9 - 5.0
03/04:30am 8.1 1.4 3.6 73 1.9 SW 28 39 15 21 1015.9 - 5.0
03/04:00am 7.7 1.1 4.3 79 1.5 WSW 28 41 15 22 1015.7 - 5.0
03/03:30am 7.8 0.5 4.6 80 1.4 SW 32 50 17 27 1015.6 - 5.0
03/03:18am 7.9 1.4 4.8 81 1.4 SW 28 50 15 27 1016.0 - 5.0
03/03:00am 8.2 2.5 5.1 81 1.4 SW 24 32 13 17 1016.3 1016.4 5.0
03/02:30am 8.5 1.4 5.3 80 1.4 WSW 32 44 17 24 1015.8 - 5.0
03/02:20am 8.9 2.4 4.7 75 1.9 SW 28 50 15 27 1015.8 - 5.0
03/02:00am 9.4 1.9 4.6 72 2.1 SW 33 44 18 24 1016.0 - 4.8
03/01:30am 9.4 2.0 5.0 74 2.0 SW 33 46 18 25 1016.0 - 4.8
03/01:26am 9.8 3.3 4.6 70 2.3 SW 28 46 15 25 1016.0 - 4.8
03/01:00am 10.1 3.7 3.2 62 3.0 SW 26 35 14 19 1015.8 - 4.8
03/12:30am 10.6 3.8 3.2 60 3.2 SW 28 43 15 23 1015.7 - 4.8
03/12:00am 10.6 3.1 3.2 60 3.2 SW 32 46 17 25 1015.6 1015.7 4.8
 
Date/Time
EST
Temp
°C
App
Temp
°C
Dew
Point
Rel
Hum
%
Delta-T
°C
Wind Press
QNH
hPa
Press
MSL
hPa
Rain
since 9 am
mm
Dir
 
Spd
km/h
Gust
km/h
Spd
kts
Gust
kts
02/11:30pm 10.8 3.6 2.9 58 3.4 SW 30 44 16 24 1015.5 - 4.8
02/11:00pm 10.8 2.7 3.4 60 3.2 SW 35 56 19 30 1015.4 - 4.8
02/10:50pm 10.8 3.3 3.6 61 3.2 SW 32 54 17 29 1015.5 - 4.8
02/10:30pm 10.6 2.3 4.3 65 2.8 SW 37 50 20 27 1015.7 - 4.8
02/10:00pm 10.2 2.3 4.6 68 2.5 SW 35 48 19 26 1015.9 - 4.8
02/09:30pm 10.1 3.6 4.5 68 2.5 SW 28 35 15 19 1016.0 - 4.8
02/09:11pm 10.5 2.6 4.2 65 2.8 SSW 35 54 19 29 1015.9 - 4.8
02/09:00pm 10.7 2.5 4.6 66 2.7 SW 37 52 20 28 1015.9 1016.0 4.8
02/08:30pm 10.3 3.0 4.7 68 2.5 SW 32 44 17 24 1015.2 - 4.8
02/08:03pm 10.0 1.8 4.8 70 2.3 SSW 37 56 20 30 1015.4 - 4.8
02/08:00pm 10.1 1.9 4.7 69 2.4 SSW 37 54 20 29 1015.4 - 4.8
02/07:30pm 10.7 3.4 4.6 66 2.7 SW 32 50 17 27 1014.5 - 4.8
02/07:26pm 10.8 3.5 4.7 66 2.8 SW 32 50 17 27 1014.4 - 4.8
02/07:00pm 10.6 3.0 5.6 71 2.3 SW 35 48 19 26 1013.9 - 4.8
02/06:30pm 10.3 2.9 6.6 78 1.7 SW 35 50 19 27 1013.4 - 4.8
02/06:14pm 9.3 3.3 7.1 86 1.0 SSW 28 46 15 25 1013.4 - 4.8
02/06:00pm 9.2 4.1 5.9 80 1.5 WSW 22 32 12 17 1013.2 1013.2 3.8
02/05:30pm 8.3 2.5 6.1 86 1.0 WSW 26 35 14 19 1012.6 - 3.8
02/05:00pm 8.7 3.3 6.3 85 1.1 WSW 24 35 13 19 1012.3 - 2.2
02/04:30pm 8.5 3.0 5.8 83 1.2 WSW 24 32 13 17 1012.0 - 1.8
02/04:00pm 8.6 3.0 5.5 81 1.4 WSW 24 37 13 20 1011.6 - 1.4
02/03:30pm 9.3 4.6 6.2 81 1.4 WSW 20 32 11 17 1011.4 - 1.0
02/03:00pm 9.4 4.0 6.5 82 1.4 SW 24 32 13 17 1011.2 1011.2 0.6
02/02:54pm 9.5 3.3 6.2 80 1.5 SW 28 46 15 25 1011.2 - 0.4
02/02:30pm 10.2 2.9 5.6 73 2.1 SW 33 46 18 25 1010.8 - 0.0
02/02:00pm 11.6 6.3 4.8 63 3.1 SW 22 30 12 16 1010.3 - 0.0
02/01:30pm 12.2 4.6 3.9 57 3.7 SW 33 56 18 30 1010.1 - 0.0
02/01:21pm 12.4 5.8 4.1 57 3.8 SW 28 46 15 25 1009.8 - 0.0
02/01:00pm 13.1 6.1 4.3 55 4.0 SW 30 43 16 23 1009.6 - 0.0
02/12:30pm 13.6 5.8 4.7 55 4.1 SW 35 50 19 27 1009.4 - 0.0
02/12:00pm 13.5 6.0 4.6 55 4.1 SW 33 54 18 29 1009.7 1009.7 0.0
02/11:55am 13.7 6.8 4.8 55 4.1 SW 30 52 16 28 1009.8 - 0.0
02/11:41am 13.6 6.3 5.3 57 3.9 SSW 33 48 18 26 1009.6 - 0.0
02/11:30am 13.9 5.0 5.3 56 4.0 SW 41 52 22 28 1009.7 - 0.0
02/11:00am 14.2 7.0 5.8 57 4.0 SSW 33 52 18 28 1009.4 - 0.0
02/10:41am 14.2 8.0 6.3 59 3.8 SW 28 46 15 25 1009.3 - 0.0
02/10:30am 14.5 9.5 6.6 59 3.8 SW 22 37 12 20 1009.4 - 0.0
02/10:00am 14.1 10.0 7.9 66 3.1 SW 19 28 10 15 1009.5 - 0.0
02/09:30am 12.8 8.2 5.7 62 3.3 WSW 19 26 10 14 1009.6 - 0.0
02/09:00am 12.5 7.9 5.4 62 3.3 WSW 19 26 10 14 1009.5 1009.5 5.0
02/08:30am 11.7 7.5 5.6 66 2.8 WSW 17 24 9 13 1009.6 - 5.0
02/08:00am 11.3 7.8 5.4 67 2.7 WSW 13 20 7 11 1009.6 - 5.0
02/07:30am 10.9 6.4 6.1 72 2.2 WSW 19 32 10 17 1009.4 - 5.0
02/07:00am 10.0 7.9 6.5 79 1.6 WNW 7 11 4 6 1009.6 - 5.0
02/06:30am 9.3 7.6 7.7 90 0.8 WSW 6 7 3 4 1009.2 - 5.0
02/06:00am 9.7 9.2 7.8 88 0.9 CALM 0 0 0 0 1009.2 1009.2 5.0
02/05:30am 9.9 7.0 8.2 89 0.8 WSW 13 20 7 11 1009.3 - 5.0
02/05:00am 9.7 6.6 8.8 94 0.4 WSW 15 20 8 11 1009.1 - 3.4
02/04:30am 11.0 7.6 10.5 97 0.3 SW 19 30 10 16 1008.7 - 1.2
02/04:00am 11.4 11.3 10.9 97 0.3 S 2 6 1 3 1008.2 - 1.0
02/03:30am 11.8 10.1 11.2 96 0.3 ESE 11 15 6 8 1008.1 - 1.0
02/03:00am 12.1 10.7 10.8 92 0.7 ESE 9 15 5 8 1008.2 1008.2 0.2
02/02:30am 12.5 11.0 10.7 89 0.9 E 9 15 5 8 1008.0 - 0.2
02/02:00am 12.8 11.9 10.5 86 1.2 E 6 9 3 5 1008.5 - 0.2
02/01:30am 12.9 11.4 10.6 86 1.2 ENE 9 13 5 7 1008.5 - 0.2
02/01:00am 13.1 11.6 10.6 85 1.3 E 9 13 5 7 1008.8 - 0.2
02/12:30am 13.4 12.0 10.8 84 1.4 E 9 13 5 7 1008.8 - 0.2
02/12:00am 13.7 12.2 10.5 81 1.7 ESE 9 13 5 7 1008.8 1008.8 0.2
 
Date/Time
EST
Temp
°C
App
Temp
°C
Dew
Point
Rel
Hum
%
Delta-T
°C
Wind Press
QNH
hPa
Press
MSL
hPa
Rain
since 9 am
mm
Dir
 
Spd
km/h
Gust
km/h
Spd
kts
Gust
kts
01/11:30pm 13.8 12.6 10.4 80 1.8 W 7 15 4 8 1008.7 - 0.2
01/11:00pm 14.0 12.9 10.6 80 1.8 E 7 13 4 7 1008.4 - 0.2
01/10:30pm 13.2 10.7 9.8 80 1.7 S 13 19 7 10 1008.5 - 0.2
01/10:00pm 12.8 11.1 10.0 83 1.4 SSW 9 11 5 6 1008.0 - 0.2
01/09:30pm 13.5 13.1 9.9 79 1.9 NE 2 7 1 4 1007.9 - 0.2
01/09:00pm 14.1 13.7 9.9 76 2.2 N 2 7 1 4 1007.8 1007.8 0.2
01/08:30pm 13.9 13.9 9.7 76 2.2 CALM 0 6 0 3 1007.9 - 0.2
01/08:00pm 14.7 13.2 9.3 70 2.8 S 7 9 4 5 1007.8 - 0.2
01/07:30pm 16.8 14.9 9.0 60 4.0 NW 9 15 5 8 1007.9 - 0.2
01/07:00pm 16.6 15.1 9.3 62 3.8 N 7 11 4 6 1007.9 - 0.2
01/06:30pm 16.1 14.7 9.5 65 3.4 WNW 7 11 4 6 1007.9 - 0.2
01/06:00pm 16.8 15.9 9.2 61 4.0 N 4 9 2 5 1007.7 1007.7 0.2
01/05:30pm 17.5 16.1 9.4 59 4.2 N 7 9 4 5 1007.8 - 0.2
01/05:00pm 17.8 16.6 9.7 59 4.3 NNE 6 9 3 5 1007.7 - 0.2
01/04:30pm 18.3 17.3 10.2 59 4.3 NNE 6 9 3 5 1007.6 - 0.2
01/04:00pm 18.3 17.3 10.9 62 4.0 NE 7 9 4 5 1007.5 - 0.2
01/03:30pm 19.0 16.7 11.6 62 4.1 ENE 15 20 8 11 1007.4 - 0.2
01/03:00pm 20.7 19.4 9.3 48 6.1 NNE 6 7 3 4 1007.8 1007.8 0.2
01/02:30pm 20.8 19.3 9.1 47 6.2 N 7 9 4 5 1007.8 - 0.2
01/02:00pm 20.5 18.5 8.5 46 6.3 NNE 9 13 5 7 1008.0 - 0.2
01/01:30pm 21.0 18.2 8.6 45 6.5 NNE 13 17 7 9 1008.6 - 0.2
01/01:00pm 22.0 21.4 12.3 54 5.5 ENE 7 11 4 6 1009.1 - 0.2
01/12:30pm 20.2 19.6 11.7 58 4.7 E 6 9 3 5 1009.7 - 0.2
01/12:00pm 18.7 18.6 12.2 66 3.6 ENE 4 7 2 4 1010.3 1010.3 0.2
01/11:30am 16.2 15.9 11.6 74 2.5 ESE 4 7 2 4 1010.8 - 0.2
01/11:00am 13.4 12.2 10.4 82 1.6 S 7 9 4 5 1011.4 - 0.2
01/10:30am 11.8 11.6 10.5 92 0.7 S 2 9 1 5 1011.8 - 0.2
01/10:00am 10.1 9.0 9.9 99 0.1 SSW 6 9 3 5 1012.4 - 0.0
01/09:30am 8.3 7.9 8.2 99 0.0 CALM 0 4 0 2 1013.0 - 0.0
01/09:00am 7.7 6.8 7.6 99 0.0 NNW 2 7 1 4 1013.7 1013.7 0.2
01/08:30am 6.4 5.6 6.3 99 0.0 CALM 0 0 0 0 1013.8 - 0.2
01/08:00am 6.0 4.7 5.9 99 0.0 ENE 2 7 1 4 1014.1 - 0.2
01/07:30am 5.0 2.5 4.9 99 0.0 SSW 7 9 4 5 1014.1 - 0.2
01/07:00am 5.0 3.9 4.9 99 0.0 CALM 0 9 0 5 1013.9 - 0.2
01/06:30am 5.2 4.1 5.1 99 0.0 CALM 0 2 0 1 1013.8 - 0.2
01/06:00am 5.3 4.2 5.2 99 0.0 CALM 0 7 0 4 1014.2 1014.2 0.2
01/05:30am 5.2 3.7 5.1 99 0.0 S 2 6 1 3 1014.1 - 0.2
01/05:00am 5.3 3.1 5.2 99 0.0 SSW 6 9 3 5 1014.2 - 0.2
01/04:30am 5.7 4.7 5.6 99 0.0 CALM 0 0 0 0 1013.7 - 0.2
01/04:00am 5.8 4.1 5.7 99 0.0 SSW 4 6 2 3 1013.7 - 0.2
01/03:30am 6.0 5.1 5.9 99 0.0 CALM 0 0 0 0 1014.1 - 0.2
01/03:00am 6.2 5.3 6.1 99 0.0 CALM 0 0 0 0 1014.4 1014.4 0.2
01/02:30am 6.2 4.9 6.1 99 0.0 WSW 2 7 1 4 1014.7 - 0.2
01/02:00am 6.1 5.2 6.0 99 0.0 CALM 0 0 0 0 1015.0 - 0.2
01/01:30am 5.8 4.8 5.7 99 0.0 CALM 0 0 0 0 1015.2 - 0.2
01/01:00am 7.2 5.8 7.1 99 0.0 W 4 7 2 4 1015.5 - 0.2
01/12:30am 6.7 5.9 6.6 99 0.0 CALM 0 0 0 0 1015.8 - 0.2
01/12:00am 7.2 5.4 7.1 99 0.0 SSW 6 7 3 4 1015.9 1016.0 0.2
 
Date/Time
EST
Temp
°C
App
Temp
°C
Dew
Point
Rel
Hum
%
Delta-T
°C
Wind Press
QNH
hPa
Press
MSL
hPa
Rain
since 9 am
mm
Dir
 
Spd
km/h
Gust
km/h
Spd
kts
Gust
kts
31/11:30pm 6.5 4.5 6.4 99 0.0 S 6 7 3 4 1016.1 - 0.2
31/11:00pm 8.2 7.8 8.1 99 0.0 CALM 0 0 0 0 1016.3 - 0.2
31/10:30pm 8.5 8.1 8.4 99 0.0 CALM 0 0 0 0 1016.6 - 0.2
31/10:00pm 8.6 8.3 8.5 99 0.0 CALM 0 0 0 0 1017.0 - 0.2
31/09:30pm 9.9 9.9 9.8 99 0.1 CALM 0 0 0 0 1017.1 - 0.2
31/09:00pm 9.5 9.3 9.0 97 0.2 CALM 0 0 0 0 1017.1 1017.2 0.2
31/08:30pm 10.2 10.1 9.6 96 0.3 CALM 0 0 0 0 1017.3 - 0.2
31/08:00pm 11.3 11.3 9.9 91 0.7 CALM 0 0 0 0 1017.3 - 0.2
31/07:30pm 12.3 11.8 10.7 90 0.8 SSW 4 7 2 4 1017.3 - 0.2
31/07:00pm 13.1 12.3 11.2 88 1.0 SSW 6 7 3 4 1017.0 - 0.2
31/06:30pm 13.6 14.0 11.1 85 1.3 CALM 0 0 0 0 1016.8 - 0.2
31/06:00pm 14.4 14.7 11.0 80 1.8 CALM 0 0 0 0 1016.6 1016.7 0.2
31/05:30pm 15.2 13.8 11.0 76 2.2 ENE 9 11 5 6 1016.5 - 0.2
31/05:00pm 16.2 14.1 11.2 72 2.7 ENE 13 15 7 8 1016.2 - 0.2
31/04:30pm 17.5 15.1 11.3 67 3.4 ENE 15 19 8 10 1015.9 - 0.2
31/04:00pm 18.4 16.0 11.5 64 3.8 E 15 19 8 10 1015.8 - 0.2
31/03:30pm 19.1 16.5 11.9 63 4.0 E 17 22 9 12 1015.8 - 0.2
31/03:00pm 19.9 17.6 11.7 59 4.5 E 15 20 8 11 1016.0 1016.1 0.2
31/02:30pm 19.7 17.0 11.7 60 4.4 SE 17 20 9 11 1016.2 - 0.2
31/02:00pm 20.8 19.0 12.0 57 4.9 ESE 13 19 7 10 1016.5 - 0.2
31/01:30pm 21.1 19.1 8.7 45 6.5 E 9 15 5 8 1016.8 - 0.2
31/01:00pm 20.7 18.2 8.4 45 6.4 E 11 15 6 8 1017.3 - 0.2
31/12:30pm 20.2 18.2 8.8 48 6.0 E 9 17 5 9 1017.9 - 0.2
31/12:00pm 19.2 17.7 10.5 57 4.7 NE 9 13 5 7 1018.6 1018.6 0.2
31/11:30am 18.5 17.5 11.1 62 4.0 NE 7 9 4 5 1019.1 - 0.2
31/11:00am 16.4 15.1 9.8 65 3.5 ENE 7 11 4 6 1019.7 - 0.2
31/10:30am 14.6 13.5 9.8 73 2.5 ENE 6 7 3 4 1020.2 - 0.2
31/10:00am 12.1 11.2 10.5 90 0.8 E 6 7 3 4 1020.6 - 0.2
31/09:30am 10.7 10.9 10.5 99 0.1 CALM 0 7 0 4 1020.8 - 0.2
31/09:00am 8.3 7.9 8.2 99 0.0 CALM 0 0 0 0 1021.1 1021.1 0.0
31/08:30am 6.9 6.2 6.8 99 0.0 CALM 0 0 0 0 1021.4 - 0.0
31/08:00am 6.0 5.1 5.9 99 0.0 CALM 0 0 0 0 1021.4 - 0.0
31/07:30am 4.8 3.6 4.7 99 0.0 CALM 0 0 0 0 1021.5 - 0.0

Other Formats:

Comma delimited format used in spreadsheet applications
http://www.bom.gov.au/fwo/IDN60801/IDN60801.95931.axf

JavaScript Object Notation format (JSON) in row-major order
http://www.bom.gov.au/fwo/IDN60801/IDN60801.95931.json